Time;durP1;ratioP1;P1;durP2;ratioP2;P2;SDS_P1;SDS_P2;PMS_P1;PMS_P2;Temp;Humidity;BMP_temperature;BMP_pressure;BME280_temperature;BME280_humidity;BME280_pressure;Samples;Min_cycle;Max_cycle;Signal;HPM_P1;HPM_P2
2024/03/29 00:01:07;;;;;;;5.30;2.30;;;9.30;99.90;;;;;;791839;179;26454;-81
2024/03/29 00:03:34;;;;;;;4.77;2.03;;;9.30;99.90;;;;;;790571;178;26451;-81
2024/03/29 00:06:01;;;;;;;6.37;2.13;;;9.30;99.90;;;;;;794436;178;26942;-78
2024/03/29 00:08:27;;;;;;;4.70;1.80;;;9.20;99.90;;;;;;796903;179;26433;-79
2024/03/29 00:10:54;;;;;;;7.77;2.87;;;9.20;99.90;;;;;;789830;179;26438;-80
2024/03/29 00:13:20;;;;;;;5.40;2.00;;;9.10;99.90;;;;;;784873;183;26422;-81
2024/03/29 00:15:47;;;;;;;9.87;2.83;;;9.10;99.90;;;;;;796004;179;26425;-81
2024/03/29 00:18:13;;;;;;;4.53;1.97;;;8.90;99.90;;;;;;797693;178;26421;-80
2024/03/29 00:20:40;;;;;;;6.93;2.10;;;8.80;99.90;;;;;;788910;178;26483;-81
2024/03/29 00:23:07;;;;;;;6.10;2.00;;;8.80;99.90;;;;;;792503;179;26460;-79
2024/03/29 00:25:33;;;;;;;7.27;2.10;;;8.80;99.90;;;;;;792868;179;26557;-80
2024/03/29 00:28:04;;;;;;;6.13;2.17;;;8.80;99.90;;;;;;788205;178;26632;-78
2024/03/29 00:30:31;;;;;;;5.13;1.90;;;8.80;99.90;;;;;;800906;177;26431;-80
2024/03/29 00:32:58;;;;;;;5.67;1.83;;;8.70;99.90;;;;;;794467;179;26561;-81
2024/03/29 00:35:24;;;;;;;5.27;2.10;;;8.60;99.90;;;;;;795788;178;26397;-80
2024/03/29 00:37:51;;;;;;;6.17;2.17;;;8.70;99.90;;;;;;793185;179;26463;-79
2024/03/29 00:40:18;;;;;;;4.43;2.60;;;8.70;99.90;;;;;;794147;179;26415;-81
2024/03/29 00:42:44;;;;;;;4.17;1.63;;;8.80;99.90;;;;;;797981;179;26423;-79
2024/03/29 00:45:11;;;;;;;5.10;2.10;;;8.80;99.90;;;;;;795165;179;26436;-78
2024/03/29 00:47:38;;;;;;;4.27;1.80;;;8.80;99.90;;;;;;793558;179;26445;-80
2024/03/29 00:50:05;;;;;;;5.40;2.10;;;8.90;99.90;;;;;;792307;179;26435;-81
2024/03/29 00:52:31;;;;;;;3.10;1.50;;;8.90;99.90;;;;;;792453;178;26432;-81
2024/03/29 00:54:58;;;;;;;8.50;1.83;;;9.00;99.90;;;;;;785165;178;26440;-81
2024/03/29 00:57:24;;;;;;;6.47;1.90;;;9.20;99.90;;;;;;796349;174;26446;-83
2024/03/29 00:59:51;;;;;;;3.70;1.80;;;9.20;99.90;;;;;;797402;179;26466;-83
2024/03/29 01:02:18;;;;;;;3.80;2.07;;;9.40;99.90;;;;;;795072;179;26425;-80
2024/03/29 01:04:44;;;;;;;3.33;1.57;;;9.40;99.90;;;;;;790668;178;26440;-80
2024/03/29 01:07:11;;;;;;;5.93;3.33;;;9.40;99.90;;;;;;785529;178;26434;-80
2024/03/29 01:09:38;;;;;;;5.97;2.07;;;9.50;99.90;;;;;;789461;179;26467;-81
2024/03/29 01:12:05;;;;;;;5.60;1.70;;;9.50;99.90;;;;;;796190;178;26495;-82
2024/03/29 01:14:31;;;;;;;4.60;1.60;;;9.50;99.90;;;;;;792024;178;26439;-80
2024/03/29 01:16:58;;;;;;;4.90;1.93;;;9.60;99.90;;;;;;797326;178;26424;-81
2024/03/29 01:19:24;;;;;;;5.17;1.60;;;9.60;99.90;;;;;;796744;175;26414;-81
2024/03/29 01:21:51;;;;;;;3.90;1.77;;;9.70;99.90;;;;;;792979;177;26484;-80
2024/03/29 01:24:18;;;;;;;3.10;1.70;;;9.70;99.90;;;;;;787601;178;26529;-79
2024/03/29 01:26:45;;;;;;;6.77;1.83;;;9.70;99.90;;;;;;795206;179;26424;-80
2024/03/29 01:29:11;;;;;;;2.50;1.70;;;9.70;99.90;;;;;;792291;178;26448;-81
2024/03/29 01:31:38;;;;;;;7.00;2.10;;;9.70;99.90;;;;;;791714;179;26414;-80
2024/03/29 01:34:05;;;;;;;5.73;1.80;;;9.70;99.90;;;;;;793613;178;26980;-81
2024/03/29 01:36:31;;;;;;;6.60;2.33;;;9.70;99.90;;;;;;794727;179;26430;-81
2024/03/29 01:38:58;;;;;;;5.87;1.87;;;9.70;99.90;;;;;;795353;177;26572;-81
2024/03/29 01:41:26;;;;;;;5.80;2.10;;;9.80;99.90;;;;;;801252;177;26430;-82
2024/03/29 01:43:52;;;;;;;5.37;2.83;;;9.70;99.90;;;;;;789356;179;26420;-81
2024/03/29 01:46:18;;;;;;;6.13;2.03;;;9.70;99.90;;;;;;789835;178;26568;-80
2024/03/29 01:48:46;;;;;;;4.37;2.00;;;9.70;99.90;;;;;;790803;179;26417;-78
2024/03/29 01:51:12;;;;;;;3.80;1.90;;;9.70;99.90;;;;;;790022;179;26634;-80
2024/03/29 01:53:38;;;;;;;7.77;2.00;;;9.80;99.90;;;;;;794184;179;26429;-81
2024/03/29 01:56:06;;;;;;;3.77;1.70;;;9.70;99.90;;;;;;791416;179;26589;-80
2024/03/29 01:58:32;;;;;;;5.37;1.87;;;9.70;99.90;;;;;;800148;179;26584;-80
2024/03/29 02:00:59;;;;;;;7.27;3.23;;;9.70;99.90;;;;;;795485;178;26455;-81
2024/03/29 02:03:25;;;;;;;8.50;3.53;;;9.70;99.90;;;;;;802159;179;26415;-78
2024/03/29 02:05:52;;;;;;;3.80;1.90;;;9.70;99.90;;;;;;795429;178;26434;-78
2024/03/29 02:08:19;;;;;;;3.83;1.83;;;9.70;99.90;;;;;;792680;179;26434;-80
2024/03/29 02:10:46;;;;;;;3.57;1.67;;;9.70;99.90;;;;;;795682;179;26456;-79
2024/03/29 02:13:13;;;;;;;8.53;2.00;;;9.70;99.90;;;;;;796123;179;26431;-81
2024/03/29 02:15:40;;;;;;;6.20;2.00;;;9.70;99.90;;;;;;795525;179;26424;-80
2024/03/29 02:18:07;;;;;;;5.03;2.07;;;9.70;99.90;;;;;;788855;179;26441;-80
2024/03/29 02:20:34;;;;;;;4.03;1.80;;;9.70;99.90;;;;;;795356;179;26447;-80
2024/03/29 02:23:00;;;;;;;4.77;1.93;;;9.70;99.90;;;;;;794915;178;26428;-80
2024/03/29 02:25:27;;;;;;;7.37;1.90;;;9.70;99.90;;;;;;786285;178;26854;-80
2024/03/29 02:27:54;;;;;;;3.57;1.90;;;9.70;99.90;;;;;;794802;179;26421;-83
2024/03/29 02:30:20;;;;;;;5.33;2.10;;;9.70;99.90;;;;;;787020;179;26493;-79
2024/03/29 02:32:48;;;;;;;3.40;1.70;;;9.80;99.90;;;;;;797246;179;26556;-80
2024/03/29 02:35:14;;;;;;;6.47;2.27;;;9.90;99.90;;;;;;792115;179;26442;-79
2024/03/29 02:37:40;;;;;;;5.10;2.00;;;9.80;99.90;;;;;;791975;179;26433;-80
2024/03/29 02:40:08;;;;;;;4.97;2.70;;;9.70;99.90;;;;;;791120;179;26441;-81
2024/03/29 02:42:35;;;;;;;3.97;1.83;;;9.70;99.90;;;;;;785649;178;26577;-81
2024/03/29 02:45:01;;;;;;;7.73;2.10;;;9.70;99.90;;;;;;796053;178;26436;-78
2024/03/29 02:47:28;;;;;;;5.83;1.80;;;9.80;99.90;;;;;;795399;179;26418;-81
2024/03/29 02:49:54;;;;;;;9.57;2.20;;;9.80;99.90;;;;;;791228;177;27264;-82
2024/03/29 02:52:21;;;;;;;5.17;2.13;;;9.80;99.90;;;;;;787975;178;26438;-79
2024/03/29 02:54:48;;;;;;;5.80;2.20;;;9.80;99.90;;;;;;796281;178;26645;-77
2024/03/29 02:57:14;;;;;;;5.43;2.03;;;9.80;99.90;;;;;;788835;178;26462;-80
2024/03/29 02:59:41;;;;;;;6.53;2.10;;;9.80;99.90;;;;;;791300;178;26466;-79
2024/03/29 03:02:08;;;;;;;7.83;2.30;;;9.80;99.90;;;;;;793806;179;26472;-79
2024/03/29 03:04:34;;;;;;;8.63;2.53;;;9.80;99.90;;;;;;789640;178;26631;-79
2024/03/29 03:12:06;;;;;;;3.23;1.90;;;9.70;99.90;;;;;;789042;178;26467;-79
2024/03/29 03:14:32;;;;;;;5.40;2.73;;;9.70;99.90;;;;;;798325;178;26431;-79
2024/03/29 03:16:59;;;;;;;10.53;3.80;;;9.60;99.90;;;;;;800673;178;26962;-82
2024/03/29 03:19:26;;;;;;;6.30;2.77;;;9.60;99.90;;;;;;799298;178;26450;-80
2024/03/29 03:21:52;;;;;;;6.33;2.53;;;9.60;99.90;;;;;;795756;178;26575;-80
2024/03/29 03:24:19;;;;;;;5.37;2.20;;;9.60;99.90;;;;;;796070;179;26437;-81
2024/03/29 03:26:46;;;;;;;7.13;2.30;;;9.60;99.90;;;;;;793468;174;26570;-79
2024/03/29 03:29:12;;;;;;;3.93;2.23;;;9.60;99.90;;;;;;789334;173;26502;-81
2024/03/29 03:31:39;;;;;;;4.70;2.53;;;9.60;99.90;;;;;;800089;174;26445;-81
2024/03/29 03:34:06;;;;;;;4.83;2.10;;;9.60;99.90;;;;;;793722;178;26441;-81
2024/03/29 03:36:32;;;;;;;4.70;2.00;;;9.60;99.90;;;;;;792976;178;26451;-79
2024/03/29 03:38:59;;;;;;;6.70;2.83;;;9.60;99.90;;;;;;786716;179;26449;-82
2024/03/29 03:41:26;;;;;;;4.27;1.87;;;9.60;99.90;;;;;;784599;179;26595;-79
2024/03/29 03:43:53;;;;;;;5.83;2.10;;;9.60;99.90;;;;;;791727;174;26420;-80
2024/03/29 03:46:19;;;;;;;5.33;1.80;;;9.60;99.90;;;;;;794935;178;26443;-81
2024/03/29 03:48:46;;;;;;;3.93;1.70;;;9.60;99.90;;;;;;797779;178;26977;-81
2024/03/29 03:51:13;;;;;;;3.07;1.87;;;9.50;99.90;;;;;;794479;178;26439;-81
2024/03/29 03:53:39;;;;;;;3.47;1.80;;;9.60;99.90;;;;;;790831;178;26972;-79
2024/03/29 03:56:06;;;;;;;2.47;1.80;;;9.50;99.90;;;;;;792388;178;26458;-79
2024/03/29 03:58:33;;;;;;;3.93;1.67;;;9.60;99.90;;;;;;793418;179;26457;-78
2024/03/29 04:00:59;;;;;;;5.53;1.90;;;9.60;99.90;;;;;;790299;179;26466;-79
2024/03/29 04:03:26;;;;;;;4.43;1.70;;;9.50;99.90;;;;;;792689;177;27013;-81
2024/03/29 04:05:53;;;;;;;4.73;1.87;;;9.50;99.90;;;;;;794947;178;26623;-78
2024/03/29 04:08:19;;;;;;;5.57;2.17;;;9.50;99.90;;;;;;788558;178;26469;-81
2024/03/29 04:10:46;;;;;;;5.80;2.50;;;9.60;99.90;;;;;;787328;179;26447;-79
2024/03/29 04:13:13;;;;;;;4.17;2.00;;;9.60;99.90;;;;;;790831;178;28055;-80
2024/03/29 04:15:39;;;;;;;4.47;1.90;;;9.50;99.90;;;;;;790727;179;28021;-81
2024/03/29 04:18:06;;;;;;;5.50;2.07;;;9.60;99.90;;;;;;795249;178;26436;-81
2024/03/29 04:20:33;;;;;;;4.77;2.00;;;9.60;99.90;;;;;;794472;178;26457;-80
2024/03/29 04:23:00;;;;;;;6.13;2.07;;;9.50;99.90;;;;;;797823;178;26441;-79
2024/03/29 04:25:26;;;;;;;4.97;2.13;;;9.50;99.90;;;;;;806944;178;26442;-80
2024/03/29 04:27:53;;;;;;;5.87;2.07;;;9.50;99.90;;;;;;796202;178;26451;-81
2024/03/29 04:30:19;;;;;;;5.60;2.00;;;9.40;99.90;;;;;;794366;179;26451;-81
2024/03/29 04:32:46;;;;;;;5.63;1.90;;;9.30;99.90;;;;;;790791;179;26412;-80
2024/03/29 04:35:13;;;;;;;5.47;1.90;;;9.20;99.90;;;;;;793656;179;26486;-82
2024/03/29 04:37:39;;;;;;;7.80;2.60;;;9.20;99.90;;;;;;798013;178;26431;-78
2024/03/29 04:40:07;;;;;;;3.77;1.80;;;9.10;99.90;;;;;;795159;179;26474;-81
2024/03/29 04:42:33;;;;;;;8.07;1.93;;;9.10;99.90;;;;;;796109;178;26446;-81
2024/03/29 04:45:00;;;;;;;6.13;2.27;;;9.10;99.90;;;;;;782766;179;26515;-79
2024/03/29 04:47:27;;;;;;;5.33;1.90;;;9.10;99.90;;;;;;786115;179;26454;-81
2024/03/29 04:49:54;;;;;;;4.17;2.10;;;9.10;99.90;;;;;;787303;178;26453;-82
2024/03/29 04:52:22;;;;;;;5.50;2.17;;;9.00;99.90;;;;;;792956;178;26448;-79
2024/03/29 04:54:47;;;;;;;5.87;2.40;;;9.00;99.90;;;;;;793802;178;26624;-81
2024/03/29 04:57:13;;;;;;;5.43;1.90;;;9.00;99.90;;;;;;792214;178;26426;-81
2024/03/29 04:59:41;;;;;;;6.43;2.50;;;9.00;99.90;;;;;;786829;178;26512;-81
2024/03/29 05:02:08;;;;;;;6.80;2.30;;;9.00;99.90;;;;;;783919;178;26472;-81
2024/03/29 05:04:34;;;;;;;7.27;2.30;;;8.90;99.90;;;;;;802624;173;26430;-82
2024/03/29 05:07:01;;;;;;;7.33;2.57;;;8.90;99.90;;;;;;789977;179;26439;-81
2024/03/29 05:09:27;;;;;;;5.77;2.40;;;8.90;99.90;;;;;;799406;178;26486;-80
2024/03/29 05:11:54;;;;;;;5.47;1.93;;;8.90;99.90;;;;;;795888;178;26488;-78
2024/03/29 05:14:22;;;;;;;5.40;2.07;;;8.90;99.90;;;;;;795199;178;26500;-81
2024/03/29 05:16:48;;;;;;;3.03;1.90;;;8.90;99.90;;;;;;798151;177;26439;-82
2024/03/29 05:19:14;;;;;;;5.43;2.00;;;9.00;99.90;;;;;;800231;179;26443;-81
2024/03/29 05:21:41;;;;;;;8.43;2.33;;;8.90;99.90;;;;;;793360;179;26472;-81
2024/03/29 05:24:08;;;;;;;3.43;2.13;;;9.00;99.90;;;;;;799333;179;26967;-80
2024/03/29 05:26:35;;;;;;;4.57;2.23;;;9.00;99.90;;;;;;793794;179;26465;-81
2024/03/29 05:29:03;;;;;;;5.37;2.10;;;9.00;99.90;;;;;;792072;179;26604;-80
2024/03/29 05:31:28;;;;;;;6.33;2.33;;;9.00;99.90;;;;;;791477;178;26595;-81
2024/03/29 05:33:55;;;;;;;4.40;2.20;;;9.10;99.90;;;;;;792219;178;26449;-82
2024/03/29 05:36:21;;;;;;;5.90;2.13;;;9.10;99.90;;;;;;797200;179;26462;-82
2024/03/29 05:38:48;;;;;;;5.17;2.43;;;9.10;99.90;;;;;;794769;178;26435;-78
2024/03/29 05:41:15;;;;;;;6.00;2.20;;;9.20;99.90;;;;;;790704;174;26588;-80
2024/03/29 05:43:41;;;;;;;5.37;2.27;;;9.20;99.90;;;;;;788062;178;26605;-81
2024/03/29 05:46:08;;;;;;;5.60;2.30;;;9.20;99.90;;;;;;793379;179;26444;-78
2024/03/29 05:48:35;;;;;;;5.33;2.20;;;9.20;99.90;;;;;;790402;178;26426;-81
2024/03/29 05:51:01;;;;;;;5.50;2.07;;;9.20;99.90;;;;;;790535;179;28139;-80
2024/03/29 05:53:28;;;;;;;5.67;1.93;;;9.20;99.90;;;;;;785699;179;26453;-80
2024/03/29 05:55:55;;;;;;;6.03;2.30;;;9.20;99.90;;;;;;792378;179;26568;-81
2024/03/29 05:58:22;;;;;;;6.57;2.30;;;9.20;99.90;;;;;;795955;178;26456;-81
2024/03/29 06:00:49;;;;;;;2.83;2.07;;;9.20;99.90;;;;;;795195;178;26998;-81
2024/03/29 06:03:15;;;;;;;4.13;2.00;;;9.20;99.90;;;;;;789052;178;27029;-80
2024/03/29 06:05:42;;;;;;;7.00;2.30;;;9.20;99.90;;;;;;792347;178;26598;-81
2024/03/29 06:08:09;;;;;;;6.37;2.33;;;9.20;99.90;;;;;;787742;179;26455;-82
2024/03/29 06:10:35;;;;;;;4.77;2.27;;;9.20;99.90;;;;;;790753;178;26448;-81
2024/03/29 06:13:17;;;;;;;5.87;2.47;;;9.20;99.90;;;;;;795093;178;26505;-80
2024/03/29 06:18:14;;;;;;;5.63;2.43;;;9.30;99.90;;;;;;792184;178;26424;-81
2024/03/29 06:20:37;;;;;;;3.97;2.20;;;9.30;99.90;;;;;;793051;178;26444;-79
2024/03/29 06:23:04;;;;;;;5.80;2.40;;;9.40;99.90;;;;;;792430;178;28086;-80
2024/03/29 06:25:31;;;;;;;4.27;2.53;;;9.40;99.90;;;;;;799398;177;26974;-81
2024/03/29 06:27:57;;;;;;;4.13;2.40;;;9.40;99.90;;;;;;792841;179;26438;-82
2024/03/29 06:30:25;;;;;;;3.97;2.50;;;9.40;99.90;;;;;;802379;169;26448;-79
2024/03/29 06:32:52;;;;;;;5.23;2.30;;;9.50;99.90;;;;;;800634;179;26474;-79
2024/03/29 06:35:26;;;;;;;6.27;2.60;;;9.50;99.90;;;;;;797123;179;26460;-79
2024/03/29 06:37:55;;;;;;;8.53;2.37;;;9.60;99.90;;;;;;801448;179;26429;-80
2024/03/29 06:40:22;;;;;;;5.63;2.60;;;9.60;99.90;;;;;;798803;179;26608;-81
2024/03/29 06:42:49;;;;;;;3.73;2.30;;;9.60;99.90;;;;;;802988;179;26439;-79
2024/03/29 06:45:17;;;;;;;4.50;1.90;;;9.70;99.90;;;;;;801277;175;26435;-81
2024/03/29 06:47:44;;;;;;;3.43;2.20;;;9.70;99.90;;;;;;806130;173;26492;-80
2024/03/29 06:50:15;;;;;;;5.00;2.20;;;9.80;99.90;;;;;;803571;173;26493;-78
2024/03/29 06:52:41;;;;;;;4.77;2.30;;;9.80;99.90;;;;;;804843;174;26443;-77
2024/03/29 06:55:10;;;;;;;6.67;2.33;;;10.00;99.90;;;;;;798542;177;26511;-78
2024/03/29 06:57:38;;;;;;;5.23;2.60;;;10.10;99.90;;;;;;799311;177;27113;-80
2024/03/29 07:00:05;;;;;;;4.00;2.50;;;10.10;99.90;;;;;;776041;183;26497;-80
2024/03/29 07:02:33;;;;;;;6.53;2.20;;;10.30;99.90;;;;;;798700;179;26452;-79
2024/03/29 07:05:05;;;;;;;6.13;2.00;;;10.40;99.90;;;;;;798657;179;26458;-80
2024/03/29 07:07:28;;;;;;;4.30;2.60;;;10.40;99.90;;;;;;803151;175;26425;-79
2024/03/29 07:09:59;;;;;;;5.67;2.40;;;10.40;99.90;;;;;;778830;183;26482;-79
2024/03/29 07:12:28;;;;;;;5.33;2.30;;;10.50;99.90;;;;;;790519;181;26468;-79
2024/03/29 07:14:56;;;;;;;4.10;2.33;;;10.50;99.90;;;;;;791104;181;26725;-78
2024/03/29 07:17:25;;;;;;;3.50;2.03;;;10.60;99.90;;;;;;804315;176;26433;-79
2024/03/29 07:19:54;;;;;;;4.03;1.90;;;10.60;99.90;;;;;;804878;175;26419;-81
2024/03/29 07:22:34;;;;;;;6.13;2.40;;;10.70;99.90;;;;;;806177;177;26447;-79
2024/03/29 07:25:02;;;;;;;4.17;2.40;;;10.80;99.90;;;;;;805695;176;26429;-79
2024/03/29 07:27:32;;;;;;;5.63;2.43;;;10.90;99.90;;;;;;775528;183;26497;-78
2024/03/29 07:30:03;;;;;;;3.40;2.30;;;11.10;99.90;;;;;;800361;179;26466;-79
2024/03/29 07:32:31;;;;;;;3.37;1.97;;;11.20;99.90;;;;;;780856;183;26520;-79
2024/03/29 07:35:04;;;;;;;5.23;2.30;;;11.30;99.90;;;;;;800817;175;26435;-78
2024/03/29 07:37:32;;;;;;;4.90;1.73;;;11.40;99.90;;;;;;809311;174;26421;-78
2024/03/29 07:40:00;;;;;;;2.73;1.93;;;11.50;99.90;;;;;;798793;176;26431;-78
2024/03/29 07:42:29;;;;;;;2.27;1.90;;;11.50;99.90;;;;;;806182;176;26436;-78
2024/03/29 07:44:57;;;;;;;1.70;1.60;;;11.60;99.90;;;;;;800159;176;26469;-79
2024/03/29 07:47:28;;;;;;;5.17;2.10;;;11.70;99.90;;;;;;776360;183;26456;-80
2024/03/29 07:49:56;;;;;;;4.80;1.90;;;11.70;99.90;;;;;;802821;179;26454;-77
2024/03/29 07:52:23;;;;;;;3.53;1.90;;;11.80;99.90;;;;;;803891;177;26443;-77
2024/03/29 07:54:53;;;;;;;2.57;1.80;;;11.90;99.90;;;;;;789893;179;27021;-76
2024/03/29 07:57:23;;;;;;;3.47;1.77;;;12.00;99.90;;;;;;800844;179;26442;-77
2024/03/29 07:59:50;;;;;;;2.73;2.07;;;12.10;99.90;;;;;;800782;179;26438;-76
2024/03/29 08:02:18;;;;;;;3.23;1.70;;;12.20;99.90;;;;;;800480;179;26481;-76
2024/03/29 08:04:45;;;;;;;4.00;1.80;;;12.30;99.90;;;;;;796278;179;26451;-76
2024/03/29 08:07:12;;;;;;;3.17;1.83;;;12.30;99.90;;;;;;798787;179;26449;-76
2024/03/29 08:09:40;;;;;;;1.67;1.57;;;12.40;99.90;;;;;;798090;179;28094;-77
2024/03/29 08:12:07;;;;;;;2.60;1.60;;;12.50;99.90;;;;;;803499;177;26462;-77
2024/03/29 08:14:34;;;;;;;2.47;1.77;;;12.60;99.90;;;;;;794484;179;26459;-78
2024/03/29 08:17:04;;;;;;;2.63;1.70;;;12.70;99.90;;;;;;795777;179;26629;-79
2024/03/29 08:19:28;;;;;;;2.00;1.80;;;12.80;99.90;;;;;;805433;176;26434;-80
2024/03/29 08:21:55;;;;;;;2.97;1.77;;;12.80;99.90;;;;;;791053;182;26468;-80
2024/03/29 08:24:21;;;;;;;1.60;1.50;;;12.90;99.90;;;;;;803365;177;26465;-80
2024/03/29 08:26:48;;;;;;;1.63;1.53;;;13.00;99.90;;;;;;774745;184;26474;-79
2024/03/29 08:29:15;;;;;;;2.50;1.80;;;12.90;99.90;;;;;;798631;177;26482;-78
2024/03/29 08:31:42;;;;;;;2.53;1.63;;;12.90;99.90;;;;;;805641;177;26454;-79
2024/03/29 08:34:13;;;;;;;2.27;1.50;;;12.90;99.90;;;;;;795150;179;26461;-79
2024/03/29 08:36:36;;;;;;;2.30;1.57;;;12.90;99.90;;;;;;800653;179;26452;-79
2024/03/29 08:39:02;;;;;;;3.00;1.60;;;13.00;99.90;;;;;;798124;177;26450;-79
2024/03/29 08:41:29;;;;;;;2.33;1.60;;;13.10;99.90;;;;;;804036;175;26461;-80
2024/03/29 08:43:56;;;;;;;3.00;1.57;;;13.20;99.90;;;;;;797475;179;26451;-79
2024/03/29 08:46:22;;;;;;;1.50;1.30;;;13.20;99.90;;;;;;801129;179;26484;-80
2024/03/29 08:48:49;;;;;;;1.93;1.50;;;13.20;99.90;;;;;;795750;179;26488;-80
2024/03/29 08:51:16;;;;;;;4.03;2.13;;;13.20;99.90;;;;;;810367;176;26455;-80
2024/03/29 08:53:42;;;;;;;2.93;1.63;;;13.20;99.90;;;;;;809336;176;26468;-80
2024/03/29 08:56:09;;;;;;;4.57;1.90;;;13.30;99.90;;;;;;802207;176;26426;-80
2024/03/29 08:58:35;;;;;;;1.83;1.43;;;13.40;99.90;;;;;;786971;182;26453;-81
2024/03/29 09:01:04;;;;;;;2.93;1.60;;;13.40;99.90;;;;;;803604;176;26440;-82
2024/03/29 09:03:29;;;;;;;2.33;1.40;;;13.50;99.90;;;;;;802117;176;26989;-79
2024/03/29 09:05:55;;;;;;;1.77;1.30;;;13.60;99.90;;;;;;795117;179;26448;-80
2024/03/29 09:08:22;;;;;;;1.73;1.50;;;13.70;99.90;;;;;;806300;177;26445;-79
2024/03/29 09:10:49;;;;;;;3.43;2.13;;;13.70;99.90;;;;;;798090;179;26471;-81
2024/03/29 09:13:15;;;;;;;2.63;1.70;;;13.80;99.90;;;;;;800377;179;26506;-80
2024/03/29 09:15:42;;;;;;;2.07;1.50;;;14.00;99.90;;;;;;799430;177;26430;-81
2024/03/29 09:18:12;;;;;;;1.60;1.50;;;14.00;99.90;;;;;;788492;181;26473;-81
2024/03/29 09:20:37;;;;;;;2.80;1.63;;;14.20;99.90;;;;;;798189;177;26446;-80
2024/03/29 09:23:04;;;;;;;2.93;1.73;;;14.30;99.90;;;;;;802672;176;26439;-80
2024/03/29 09:25:32;;;;;;;1.83;1.60;;;14.50;99.90;;;;;;808672;176;26434;-81
2024/03/29 09:27:57;;;;;;;3.33;1.90;;;14.50;99.90;;;;;;803296;178;26430;-80
2024/03/29 09:30:24;;;;;;;3.30;1.90;;;14.50;99.90;;;;;;796661;179;26498;-81
2024/03/29 09:32:50;;;;;;;4.50;2.07;;;14.50;99.90;;;;;;798059;179;26453;-79
2024/03/29 09:35:19;;;;;;;3.37;1.70;;;14.70;99.90;;;;;;804369;177;26425;-81
2024/03/29 09:37:45;;;;;;;2.80;1.83;;;14.90;99.90;;;;;;800777;177;26455;-80
2024/03/29 09:40:12;;;;;;;3.23;1.80;;;15.00;99.90;;;;;;800067;179;27008;-80
2024/03/29 09:42:39;;;;;;;3.37;1.87;;;14.90;99.90;;;;;;794845;179;26457;-80
2024/03/29 09:45:10;;;;;;;3.03;1.97;;;15.10;99.90;;;;;;802518;177;26470;-81
2024/03/29 09:47:40;;;;;;;2.00;1.80;;;14.80;99.90;;;;;;777523;183;27022;-79
2024/03/29 09:50:06;;;;;;;2.10;1.70;;;15.00;99.90;;;;;;796738;179;26510;-79
2024/03/29 09:52:34;;;;;;;3.30;1.60;;;15.00;99.90;;;;;;801225;179;26512;-80
2024/03/29 09:55:05;;;;;;;4.80;1.80;;;15.10;99.90;;;;;;776749;179;26548;-80
2024/03/29 09:57:32;;;;;;;2.57;2.33;;;15.30;99.90;;;;;;796156;178;26450;-80
2024/03/29 09:59:59;;;;;;;2.17;1.83;;;15.30;99.90;;;;;;803923;177;26450;-80
2024/03/29 10:02:26;;;;;;;2.10;1.60;;;15.20;99.90;;;;;;803721;179;26472;-80
2024/03/29 10:04:54;;;;;;;3.90;2.00;;;15.20;99.90;;;;;;800485;179;26463;-80
2024/03/29 10:07:21;;;;;;;3.60;1.90;;;15.00;99.90;;;;;;803529;176;26462;-79
2024/03/29 10:09:54;;;;;;;3.17;1.80;;;15.10;99.90;;;;;;803686;176;26461;-80
2024/03/29 10:12:21;;;;;;;2.20;1.50;;;15.10;99.90;;;;;;791578;181;26510;-81
2024/03/29 10:14:51;;;;;;;2.90;1.20;;;15.00;99.90;;;;;;803874;176;26794;-80
2024/03/29 10:17:17;;;;;;;2.43;1.50;;;15.00;99.90;;;;;;806060;175;26455;-80
2024/03/29 10:19:42;;;;;;;1.73;1.50;;;15.10;99.90;;;;;;806154;175;26440;-80
2024/03/29 10:22:09;;;;;;;1.80;1.30;;;15.20;99.90;;;;;;810198;175;26518;-80
2024/03/29 10:24:41;;;;;;;2.20;1.40;;;15.10;99.90;;;;;;772321;183;26472;-80
2024/03/29 10:27:09;;;;;;;2.87;1.37;;;15.20;99.90;;;;;;795689;180;27720;-80
2024/03/29 10:29:38;;;;;;;3.23;1.90;;;15.30;99.90;;;;;;787721;179;26973;-80
2024/03/29 10:32:10;;;;;;;2.57;1.80;;;15.20;99.90;;;;;;806831;177;26438;-79
2024/03/29 10:34:39;;;;;;;4.20;1.50;;;15.10;99.90;;;;;;813764;176;26452;-80
2024/03/29 10:37:05;;;;;;;1.87;1.23;;;15.10;99.90;;;;;;806166;177;26439;-79
2024/03/29 10:39:33;;;;;;;1.70;1.33;;;15.30;99.90;;;;;;798938;178;26419;-79
2024/03/29 10:42:33;;;;;;;;;;;;;;;;;;;;;
2024/03/29 10:44:59;;;;;;;7.70;3.97;;;15.30;99.60;;;;;;776817;185;26462;-79
2024/03/29 10:47:32;;;;;;;3.93;1.83;;;15.50;99.00;;;;;;775668;183;26693;-81
2024/03/29 10:52:48;;;;;;;2.20;1.30;;;15.60;98.70;;;;;;806858;169;26454;-81
2024/03/29 10:55:15;;;;;;;4.13;2.00;;;15.60;98.60;;;;;;805412;178;26442;-80
2024/03/29 10:57:42;;;;;;;5.43;3.00;;;15.70;98.80;;;;;;794777;178;26489;-80
2024/03/29 11:00:20;;;;;;;3.20;1.87;;;15.80;98.30;;;;;;793177;175;26437;-80
2024/03/29 11:03:09;;;;;;;3.80;1.73;;;15.70;99.70;;;;;;821657;175;26395;-79
2024/03/29 11:05:38;;;;;;;1.70;1.43;;;15.50;98.90;;;;;;832646;169;26401;-80
2024/03/29 11:08:05;;;;;;;1.97;1.63;;;15.50;98.50;;;;;;829730;170;26382;-80
2024/03/29 11:10:34;;;;;;;9.10;5.23;;;15.50;98.50;;;;;;816016;174;26423;-80
2024/03/29 11:13:37;;;;;;;2.07;1.80;;;15.70;99.00;;;;;;816809;171;26413;-78
2024/03/29 11:16:11;;;;;;;2.83;1.20;;;15.70;99.20;;;;;;808385;172;26431;-79
2024/03/29 11:18:39;;;;;;;1.33;1.10;;;15.80;98.00;;;;;;816868;174;26432;-79
2024/03/29 11:21:09;;;;;;;12.00;5.87;;;15.80;97.80;;;;;;816765;175;26487;-80
2024/03/29 11:23:43;;;;;;;3.90;2.07;;;15.80;99.30;;;;;;821104;172;26480;-79
2024/03/29 11:26:13;;;;;;;3.40;1.87;;;15.90;97.70;;;;;;818671;175;26420;-81
2024/03/29 11:28:43;;;;;;;3.17;2.43;;;15.90;98.40;;;;;;829739;170;26908;-80
2024/03/29 11:31:07;;;;;;;11.40;7.23;;;15.70;97.30;;;;;;828423;173;26415;-80
2024/03/29 11:33:48;;;;;;;2.10;1.37;;;15.80;97.80;;;;;;817447;175;26474;-80
2024/03/29 11:36:24;;;;;;;3.43;1.90;;;15.70;97.90;;;;;;830048;173;26379;-80
2024/03/29 11:38:58;;;;;;;2.03;1.43;;;15.80;97.40;;;;;;829781;173;26410;-78
2024/03/29 11:41:28;;;;;;;18.87;11.00;;;15.80;97.10;;;;;;829423;170;26466;-80
2024/03/29 11:43:54;;;;;;;3.77;2.63;;;15.80;97.80;;;;;;828515;170;26406;-80
2024/03/29 11:46:23;;;;;;;12.20;7.10;;;15.80;96.20;;;;;;814459;173;26416;-79
2024/03/29 11:48:56;;;;;;;11.43;7.37;;;15.60;96.30;;;;;;811734;177;26407;-79
2024/03/29 11:51:24;;;;;;;9.70;6.23;;;15.60;96.30;;;;;;812977;176;26493;-79
2024/03/29 11:53:51;;;;;;;4.07;2.83;;;15.70;96.00;;;;;;812066;177;26411;-78
2024/03/29 11:56:16;;;;;;;11.53;6.43;;;15.80;95.80;;;;;;812028;177;26443;-80
2024/03/29 11:58:43;;;;;;;20.60;12.00;;;15.70;95.10;;;;;;816233;175;26391;-79
2024/03/29 12:01:10;;;;;;;6.10;3.83;;;15.60;95.90;;;;;;816456;176;26448;-79
2024/03/29 12:03:39;;;;;;;6.73;4.00;;;15.50;96.00;;;;;;827527;174;26538;-79
2024/03/29 12:06:05;;;;;;;9.07;5.37;;;15.50;95.90;;;;;;813431;173;26442;-79
2024/03/29 12:08:32;;;;;;;9.30;4.63;;;15.40;96.20;;;;;;814223;177;26481;-80
2024/03/29 12:10:59;;;;;;;2.97;2.43;;;15.40;96.20;;;;;;814471;173;26587;-80
2024/03/29 12:13:25;;;;;;;1.30;1.20;;;15.30;96.80;;;;;;814351;176;26967;-80
2024/03/29 12:15:52;;;;;;;2.20;1.83;;;15.30;97.50;;;;;;813860;173;26397;-81
2024/03/29 12:18:20;;;;;;;1.87;1.47;;;15.10;98.20;;;;;;815050;176;26463;-81
2024/03/29 12:20:49;;;;;;;2.47;1.37;;;15.10;98.80;;;;;;819017;170;26393;-81
2024/03/29 12:23:14;;;;;;;2.13;1.27;;;15.20;98.60;;;;;;827690;171;26390;-81
2024/03/29 12:25:41;;;;;;;1.50;1.40;;;15.30;99.50;;;;;;828914;171;26384;-79
2024/03/29 12:28:07;;;;;;;1.37;1.27;;;15.20;99.90;;;;;;830387;169;26413;-80
2024/03/29 12:30:37;;;;;;;2.30;1.40;;;15.20;99.90;;;;;;818059;172;26441;31
2024/03/29 12:33:06;;;;;;;1.87;1.30;;;15.00;99.90;;;;;;786924;181;26497;-81
2024/03/29 12:35:31;;;;;;;1.83;1.50;;;15.10;99.90;;;;;;785215;179;26455;-79
2024/03/29 12:37:59;;;;;;;2.23;1.70;;;15.50;99.90;;;;;;791267;179;26580;-79
2024/03/29 12:40:25;;;;;;;2.70;1.63;;;15.40;99.90;;;;;;785681;179;26470;-78
2024/03/29 12:42:52;;;;;;;1.57;1.40;;;15.20;99.90;;;;;;782676;183;26488;-79
2024/03/29 12:45:19;;;;;;;8.53;4.10;;;15.00;99.90;;;;;;785534;183;26622;-79
2024/03/29 12:47:46;;;;;;;4.53;2.10;;;14.80;99.90;;;;;;784132;183;26468;-80
2024/03/29 12:50:14;;;;;;;2.00;1.80;;;14.50;99.90;;;;;;792358;180;26442;-80
2024/03/29 12:52:41;;;;;;;2.93;1.93;;;14.50;99.90;;;;;;790925;178;26451;-80
2024/03/29 12:55:08;;;;;;;4.27;2.33;;;14.60;99.90;;;;;;793903;180;26584;-79
2024/03/29 12:57:35;;;;;;;5.93;1.90;;;14.70;99.90;;;;;;795180;180;26428;-79
2024/03/29 13:00:08;;;;;;;2.03;1.40;;;14.80;99.90;;;;;;793842;180;26493;-79
2024/03/29 13:02:30;;;;;;;2.07;1.70;;;14.80;99.90;;;;;;791278;179;26478;-79
2024/03/29 13:04:57;;;;;;;1.70;1.40;;;14.80;99.90;;;;;;790316;180;26493;-79